createdAt,value
2023-02-03T00:01:13.133Z,101914.81
2023-02-03T00:03:16.565Z,101907.13
2023-02-03T00:05:20.009Z,101902.72
2023-02-03T00:07:23.404Z,101899.22
2023-02-03T00:09:26.893Z,101881.19
2023-02-03T00:11:33.268Z,101878.03
2023-02-03T00:13:37.275Z,101842.47
2023-02-03T00:15:42.047Z,101877.69
2023-02-03T00:17:45.379Z,101888.03
2023-02-03T00:19:50.093Z,101877.19
2023-02-03T00:21:53.413Z,101885.75
2023-02-03T00:23:56.703Z,101873.97
2023-02-03T00:26:07.172Z,101875.03
2023-02-03T00:28:10.623Z,101872.63
2023-02-03T00:30:14.519Z,101854.94
2023-02-03T00:32:20.071Z,101867.69
2023-02-03T00:34:23.849Z,101866.31
2023-02-03T00:36:27.292Z,101859.47
2023-02-03T00:38:30.817Z,101860.13
2023-02-03T00:40:34.267Z,101867.53
2023-02-03T00:42:38.268Z,101853.19
2023-02-03T00:44:41.616Z,101836.00
2023-02-03T00:46:44.957Z,101869.31
2023-02-03T00:48:49.848Z,101860.75
2023-02-03T00:50:53.259Z,101849.56
2023-02-03T00:52:56.593Z,101850.59
2023-02-03T00:55:00.006Z,101851.59
2023-02-03T00:57:03.297Z,101849.31
2023-02-03T00:59:06.901Z,101856.53
2023-02-03T01:01:10.992Z,101849.41
2023-02-03T01:03:14.484Z,101866.63
2023-02-03T01:05:19.309Z,101856.47
2023-02-03T01:07:23.144Z,101814.22
2023-02-03T01:09:27.256Z,101840.72
2023-02-03T01:11:30.896Z,101818.69
2023-02-03T01:13:34.307Z,101862.44
2023-02-03T01:15:37.784Z,101864.44
2023-02-03T01:17:41.277Z,101873.06
2023-02-03T01:19:44.565Z,101873.69
2023-02-03T01:21:49.309Z,101889.81
2023-02-03T01:23:53.398Z,101888.91
2023-02-03T01:25:56.757Z,101899.56
2023-02-03T01:28:00.109Z,101887.03
2023-02-03T01:30:03.491Z,101901.63
2023-02-03T01:32:06.940Z,101907.84
2023-02-03T01:34:14.327Z,101901.75
2023-02-03T01:36:18.837Z,101894.97
2023-02-03T01:38:23.534Z,101892.59
2023-02-03T01:40:27.204Z,101901.50
2023-02-03T01:42:34.514Z,101892.91
2023-02-03T01:44:49.382Z,101912.72
2023-02-03T01:46:53.537Z,101898.75
2023-02-03T01:49:04.108Z,101903.47
2023-02-03T01:51:08.200Z,101909.00
2023-02-03T01:53:12.948Z,101897.13
2023-02-03T01:55:20.750Z,101903.53
2023-02-03T01:57:28.285Z,101915.59
2023-02-03T01:59:34.391Z,101877.94
2023-02-03T02:01:38.150Z,101907.69
2023-02-03T02:03:47.480Z,101901.25
2023-02-03T02:05:56.185Z,101892.50
2023-02-03T02:08:01.102Z,101879.00
2023-02-03T02:10:05.554Z,101875.56
2023-02-03T02:12:11.762Z,101882.00
2023-02-03T02:14:15.144Z,101891.69
2023-02-03T02:16:25.559Z,101895.25
2023-02-03T02:18:44.055Z,101905.59
2023-02-03T02:21:12.674Z,101906.13
2023-02-03T02:23:48.364Z,101907.28
2023-02-03T02:26:26.775Z,101896.31
2023-02-03T02:28:58.189Z,101877.50
2023-02-03T02:31:37.305Z,101868.31
2023-02-03T02:33:45.138Z,101875.75
2023-02-03T02:35:59.199Z,101866.31
2023-02-03T02:38:06.339Z,101863.22
2023-02-03T02:40:21.444Z,101866.72
2023-02-03T02:42:31.192Z,101864.50
2023-02-03T02:44:40.424Z,101865.41
2023-02-03T02:46:49.562Z,101849.97
2023-02-03T02:49:00.662Z,101855.09
2023-02-03T02:51:07.808Z,101857.00
2023-02-03T02:53:14.268Z,101857.78
2023-02-03T02:55:24.598Z,101828.25
2023-02-03T02:57:32.373Z,101862.00
2023-02-03T02:59:36.843Z,101848.03
2023-02-03T03:01:41.237Z,101868.13
2023-02-03T03:03:49.407Z,101863.22
2023-02-03T03:05:56.523Z,101870.72
2023-02-03T03:08:04.824Z,101867.84
2023-02-03T03:10:14.685Z,101869.06
2023-02-03T03:12:22.836Z,101863.97
2023-02-03T03:14:31.461Z,101853.53
2023-02-03T03:16:38.039Z,101849.31
2023-02-03T03:18:45.344Z,101839.47
2023-02-03T03:20:52.598Z,101766.75
2023-02-03T03:23:00.481Z,101825.75
2023-02-03T03:25:10.889Z,101843.81
2023-02-03T03:27:19.464Z,101842.56
2023-02-03T03:29:26.665Z,101845.66
2023-02-03T03:31:30.163Z,101846.09
2023-02-03T03:33:33.744Z,101844.06
2023-02-03T03:35:43.625Z,101852.03
2023-02-03T03:37:57.058Z,101851.13
2023-02-03T03:40:03.452Z,101844.22
2023-02-03T03:42:12.792Z,101864.94
2023-02-03T03:44:20.235Z,101849.91
2023-02-03T03:46:28.835Z,101846.88
2023-02-03T03:48:37.845Z,101847.94
2023-02-03T03:50:45.122Z,101853.94
2023-02-03T03:52:51.835Z,101833.88
2023-02-03T03:54:57.553Z,101836.78
2023-02-03T03:57:06.355Z,101842.88
2023-02-03T03:59:12.380Z,101838.44
2023-02-03T04:01:17.455Z,101845.00
2023-02-03T04:03:25.446Z,101856.22
2023-02-03T04:05:29.958Z,101834.50
2023-02-03T04:07:39.993Z,101850.66
2023-02-03T04:09:44.709Z,101841.94
2023-02-03T04:12:02.076Z,101837.34
2023-02-03T04:14:05.445Z,101832.56
2023-02-03T04:16:09.970Z,101825.00
2023-02-03T04:18:14.826Z,101819.06
2023-02-03T04:20:18.526Z,101838.91
2023-02-03T04:22:23.100Z,101837.69
2023-02-03T04:24:26.426Z,101833.81
2023-02-03T04:26:31.111Z,101846.47
2023-02-03T04:28:34.412Z,101846.72
2023-02-03T04:30:37.752Z,101846.47
2023-02-03T04:32:41.531Z,101841.66
2023-02-03T04:34:44.844Z,101848.25
2023-02-03T04:36:48.252Z,101842.56
2023-02-03T04:38:51.904Z,101852.88
2023-02-03T04:40:55.207Z,101842.75
2023-02-03T04:42:59.924Z,101840.47
2023-02-03T04:45:03.277Z,101852.25
2023-02-03T04:47:06.670Z,101852.50
2023-02-03T04:49:11.654Z,101852.81
2023-02-03T04:51:15.026Z,101843.97
2023-02-03T04:53:18.355Z,101841.66
2023-02-03T04:55:21.657Z,101836.78
2023-02-03T04:57:25.002Z,101823.31
2023-02-03T04:59:29.834Z,101842.59
2023-02-03T05:01:33.241Z,101817.28
2023-02-03T05:03:36.728Z,101825.13
2023-02-03T05:05:40.191Z,101832.31
2023-02-03T05:07:43.588Z,101825.06
2023-02-03T05:09:46.929Z,101819.78
2023-02-03T05:11:50.304Z,101815.22
2023-02-03T05:13:54.226Z,101824.81
2023-02-03T05:15:58.906Z,101820.59
2023-02-03T05:18:02.198Z,101807.56
2023-02-03T05:20:06.504Z,101799.59
2023-02-03T05:22:09.801Z,101811.16
2023-02-03T05:24:13.245Z,101795.44
2023-02-03T05:26:16.582Z,101795.31
2023-02-03T05:28:20.835Z,101807.66
2023-02-03T05:30:24.184Z,101801.13
2023-02-03T05:32:28.909Z,101800.19
2023-02-03T05:34:32.416Z,101792.00
2023-02-03T05:36:35.814Z,101803.56
2023-02-03T05:38:39.136Z,101806.56
2023-02-03T05:40:59.950Z,101797.00
2023-02-03T05:43:03.257Z,101797.28
2023-02-03T05:45:07.406Z,101811.78
2023-02-03T05:47:10.943Z,101806.06
2023-02-03T05:49:16.231Z,101784.16
2023-02-03T05:51:19.564Z,101822.97
2023-02-03T05:53:23.066Z,101822.25
2023-02-03T05:55:26.455Z,101815.25
2023-02-03T05:57:32.133Z,101829.13
2023-02-03T05:59:35.601Z,101823.56
2023-02-03T06:01:39.205Z,101838.16
2023-02-03T06:03:46.039Z,101841.03
2023-02-03T06:05:53.832Z,101827.53
2023-02-03T06:07:57.238Z,101827.28
2023-02-03T06:10:00.564Z,101841.66
2023-02-03T06:12:04.005Z,101793.97
2023-02-03T06:14:07.398Z,101833.44
2023-02-03T06:16:11.006Z,101844.69
2023-02-03T06:18:14.414Z,101843.16
2023-02-03T06:20:21.047Z,101847.84
2023-02-03T06:22:25.777Z,101834.81
2023-02-03T06:24:29.882Z,101834.34
2023-02-03T06:26:33.224Z,101826.16
2023-02-03T06:28:38.143Z,101835.53
2023-02-03T06:30:41.566Z,101821.50
2023-02-03T06:32:45.249Z,101826.50
2023-02-03T06:34:48.678Z,101827.59
2023-02-03T06:36:51.940Z,101829.47
2023-02-03T06:38:56.717Z,101834.44
2023-02-03T06:41:00.124Z,101839.69
2023-02-03T06:43:03.486Z,101846.59
2023-02-03T06:45:08.274Z,101845.00
2023-02-03T06:47:11.574Z,101835.31
2023-02-03T06:49:14.999Z,101834.97
2023-02-03T06:51:18.429Z,101841.75
2023-02-03T06:53:21.746Z,101832.88
2023-02-03T06:55:26.481Z,101838.09
2023-02-03T06:57:29.863Z,101828.34
2023-02-03T06:59:33.345Z,101834.66
2023-02-03T07:01:36.896Z,101835.06
2023-02-03T07:03:40.489Z,101828.63
2023-02-03T07:05:43.848Z,101831.00
2023-02-03T07:07:47.184Z,101832.38
2023-02-03T07:09:50.589Z,101832.63
2023-02-03T07:11:55.275Z,101848.19
2023-02-03T07:13:58.723Z,101829.16
2023-02-03T07:16:02.113Z,101829.88
2023-02-03T07:18:05.737Z,101823.00
2023-02-03T07:20:09.896Z,101802.59
2023-02-03T07:22:13.260Z,101828.00
2023-02-03T07:24:16.780Z,101846.06
2023-02-03T07:26:22.902Z,101846.97
2023-02-03T07:28:27.841Z,101839.66
2023-02-03T07:30:31.441Z,101844.28
2023-02-03T07:32:34.885Z,101852.41
2023-02-03T07:34:38.160Z,101846.97
2023-02-03T07:36:41.622Z,101851.19
2023-02-03T07:38:44.960Z,101852.25
2023-02-03T07:40:48.363Z,101844.38
2023-02-03T07:42:51.681Z,101831.25
2023-02-03T07:44:56.360Z,101838.75
2023-02-03T07:46:59.886Z,101850.28
2023-02-03T07:49:05.716Z,101850.41
2023-02-03T07:51:09.151Z,101855.16
2023-02-03T07:53:12.619Z,101849.00
2023-02-03T07:55:16.065Z,101859.38
2023-02-03T07:57:19.485Z,101845.97
2023-02-03T07:59:22.854Z,101850.78
2023-02-03T08:01:28.738Z,101858.38
2023-02-03T08:03:32.061Z,101850.38
2023-02-03T08:05:35.616Z,101866.31
2023-02-03T08:07:39.209Z,101865.56
2023-02-03T08:09:42.581Z,101867.19
2023-02-03T08:11:45.950Z,101856.47
2023-02-03T08:13:50.245Z,101853.59
2023-02-03T08:15:53.806Z,101853.19
2023-02-03T08:17:58.567Z,101853.03
2023-02-03T08:20:02.041Z,101852.72
2023-02-03T08:22:05.446Z,101865.66
2023-02-03T08:24:09.075Z,101875.31
2023-02-03T08:26:12.569Z,101888.97
2023-02-03T08:28:15.964Z,101870.78
2023-02-03T08:30:19.592Z,101877.84
2023-02-03T08:32:24.951Z,101882.38
2023-02-03T08:34:30.029Z,101879.22
2023-02-03T08:36:33.361Z,101881.91
2023-02-03T08:38:36.745Z,101887.22
2023-02-03T08:40:40.122Z,101891.44
2023-02-03T08:42:44.822Z,101893.22
2023-02-03T08:44:49.230Z,101891.59
2023-02-03T08:46:53.390Z,101888.47
2023-02-03T08:48:57.564Z,101882.63
2023-02-03T08:51:02.359Z,101897.56
2023-02-03T08:53:06.098Z,101897.25
2023-02-03T08:55:09.776Z,101861.81
2023-02-03T08:57:13.091Z,101888.97
2023-02-03T08:59:16.485Z,101888.66
2023-02-03T09:01:20.010Z,101877.94
2023-02-03T09:03:23.467Z,101887.22
2023-02-03T09:05:26.850Z,101889.56
2023-02-03T09:07:31.621Z,101891.84
2023-02-03T09:09:34.947Z,101889.88
2023-02-03T09:11:38.602Z,101900.59
2023-02-03T09:13:45.776Z,101904.75
2023-02-03T09:15:49.127Z,101888.25
2023-02-03T09:17:53.660Z,101895.66
2023-02-03T09:19:57.063Z,101892.22
2023-02-03T09:22:00.612Z,101894.50
2023-02-03T09:24:06.039Z,101901.41
2023-02-03T09:26:11.552Z,101789.44
2023-02-03T09:28:14.927Z,101898.44
2023-02-03T09:30:18.955Z,101892.91
2023-02-03T09:32:22.312Z,101902.56
2023-02-03T09:34:25.660Z,101902.25
2023-02-03T09:36:29.156Z,101865.50
2023-02-03T09:38:33.959Z,101900.53
2023-02-03T09:40:40.629Z,101891.59
2023-02-03T09:42:59.796Z,101888.97
2023-02-03T09:45:15.767Z,101893.28
2023-02-03T09:47:26.159Z,101852.50
2023-02-03T09:49:38.624Z,101880.53
2023-02-03T09:51:46.653Z,101884.78
2023-02-03T09:53:55.319Z,101889.63
2023-02-03T09:56:00.900Z,101891.59
2023-02-03T09:58:07.403Z,101892.16
2023-02-03T10:00:20.667Z,101792.78
2023-02-03T10:02:36.967Z,101893.66
2023-02-03T10:04:45.575Z,101898.44
2023-02-03T10:06:49.172Z,101897.53
2023-02-03T10:09:20.635Z,101893.38
2023-02-03T10:11:36.966Z,101901.50
2023-02-03T10:13:57.948Z,101911.44
2023-02-03T10:16:16.958Z,101911.13
2023-02-03T10:18:25.150Z,101914.03
2023-02-03T10:20:36.809Z,101923.63
2023-02-03T10:22:44.174Z,101916.47
2023-02-03T10:24:53.802Z,101922.72
2023-02-03T10:26:59.092Z,101925.41
2023-02-03T10:29:08.974Z,101922.47
2023-02-03T10:31:18.096Z,101870.28
2023-02-03T10:33:22.130Z,101910.13
2023-02-03T10:35:36.605Z,101906.38
2023-02-03T10:37:44.829Z,101907.69
2023-02-03T10:39:50.393Z,101902.97
2023-02-03T10:41:54.841Z,101887.91
2023-02-03T10:44:03.117Z,101903.19
2023-02-03T10:46:06.482Z,101901.09
2023-02-03T10:48:16.913Z,101877.25
2023-02-03T10:50:22.918Z,101902.31
2023-02-03T10:52:32.238Z,101905.25
2023-02-03T10:54:38.237Z,101889.13
2023-02-03T10:56:42.074Z,101897.78
2023-02-03T10:58:50.574Z,101874.84
2023-02-03T11:00:59.982Z,101915.00
2023-02-03T11:03:08.001Z,101887.06
2023-02-03T11:05:20.845Z,101900.38
2023-02-03T11:07:27.066Z,101903.38
2023-02-03T11:09:34.664Z,101887.06
2023-02-03T11:11:41.648Z,101897.03
2023-02-03T11:13:44.996Z,101890.78
2023-02-03T11:15:58.757Z,101862.97
2023-02-03T11:18:02.140Z,101901.59
2023-02-03T11:20:15.314Z,101883.56
2023-02-03T11:22:29.788Z,101848.03
2023-02-03T11:24:35.011Z,101875.66
2023-02-03T11:26:43.642Z,101840.94
2023-02-03T11:28:49.600Z,101887.03
2023-02-03T11:30:57.390Z,101889.72
2023-02-03T11:33:03.751Z,101888.16
2023-02-03T11:35:18.594Z,101886.00
2023-02-03T11:37:32.238Z,101884.09
2023-02-03T11:39:35.827Z,101895.31
2023-02-03T11:41:40.616Z,101898.81
2023-02-03T11:43:43.991Z,101891.69
2023-02-03T11:45:51.213Z,101900.03
2023-02-03T11:47:57.694Z,101900.53
2023-02-03T11:50:31.107Z,101909.81
2023-02-03T11:52:56.123Z,101911.91
2023-02-03T11:55:09.060Z,101930.03
2023-02-03T11:57:26.944Z,101913.78
2023-02-03T11:59:45.465Z,101908.50
2023-02-03T12:02:25.507Z,101886.47
2023-02-03T12:05:01.040Z,101896.91
2023-02-03T12:07:31.419Z,101892.97
2023-02-03T12:09:47.708Z,101905.22
2023-02-03T12:12:22.128Z,101897.59
2023-02-03T12:14:40.020Z,101806.19
2023-02-03T12:17:05.531Z,101896.28
2023-02-03T12:19:19.883Z,101892.34
2023-02-03T12:21:43.749Z,101900.72
2023-02-03T12:23:54.633Z,101905.22
2023-02-03T12:26:13.813Z,101902.06
2023-02-03T12:28:33.590Z,101894.34
2023-02-03T12:30:42.461Z,101888.88
2023-02-03T12:32:52.563Z,101840.19
2023-02-03T12:35:00.958Z,101892.19
2023-02-03T12:37:09.475Z,101892.44
2023-02-03T12:39:20.514Z,101898.06
2023-02-03T12:41:27.988Z,101900.41
2023-02-03T12:43:37.937Z,101912.94
2023-02-03T12:45:41.869Z,101904.72
2023-02-03T12:47:50.967Z,101909.19
2023-02-03T12:49:57.669Z,101900.22
2023-02-03T12:52:06.236Z,101890.47
2023-02-03T12:54:20.367Z,101865.34
2023-02-03T12:56:28.764Z,101885.25
2023-02-03T12:58:38.071Z,101892.41
2023-02-03T13:00:46.937Z,101898.66
2023-02-03T13:03:03.323Z,101895.22
2023-02-03T13:05:18.437Z,101899.72
2023-02-03T13:07:28.568Z,101898.81
2023-02-03T13:09:40.639Z,101896.13
2023-02-03T13:11:49.744Z,101908.25
2023-02-03T13:13:56.830Z,101899.31
2023-02-03T13:16:03.241Z,101893.00
2023-02-03T13:18:15.707Z,101888.50
2023-02-03T13:20:21.971Z,101898.44
2023-02-03T13:22:26.618Z,101897.13
2023-02-03T13:24:31.451Z,101895.66
2023-02-03T13:26:56.277Z,101889.72
2023-02-03T13:29:21.589Z,101905.34
2023-02-03T13:31:38.642Z,101904.53
2023-02-03T13:34:12.319Z,101906.03
2023-02-03T13:36:41.697Z,101895.28
2023-02-03T13:39:21.538Z,101907.34
2023-02-03T13:41:36.338Z,101920.56
2023-02-03T13:43:46.567Z,101909.34
2023-02-03T13:45:53.010Z,101906.44
2023-02-03T13:47:59.092Z,101910.81
2023-02-03T13:50:06.056Z,101907.09
2023-02-03T13:52:25.255Z,101912.84
2023-02-03T13:54:39.531Z,101861.91
2023-02-03T13:56:45.096Z,101880.19
2023-02-03T13:59:03.130Z,101868.72
2023-02-03T14:01:29.581Z,101865.00
2023-02-03T14:03:44.904Z,101845.47
2023-02-03T14:05:50.868Z,101855.78
2023-02-03T14:07:54.159Z,101883.25
2023-02-03T14:10:15.914Z,101904.03
2023-02-03T14:12:59.753Z,101900.69
2023-02-03T14:15:23.434Z,101906.84
2023-02-03T14:18:05.933Z,101915.72
2023-02-03T14:20:54.165Z,101910.94
2023-02-03T14:23:02.116Z,101865.59
2023-02-03T14:25:07.971Z,101910.66
2023-02-03T14:27:19.816Z,101925.94
2023-02-03T14:29:29.367Z,101933.59
2023-02-03T14:31:54.534Z,101886.97
2023-02-03T14:34:15.081Z,101920.84
2023-02-03T14:36:35.101Z,101917.72
2023-02-03T14:38:38.586Z,101898.94
2023-02-03T14:40:49.346Z,101896.94
2023-02-03T14:43:21.921Z,101894.25
2023-02-03T14:45:44.629Z,101900.66
2023-02-03T14:48:02.468Z,101904.00
2023-02-03T14:50:18.379Z,101904.91
2023-02-03T14:52:39.944Z,101894.84
2023-02-03T14:54:59.057Z,101900.25
2023-02-03T14:57:19.446Z,101915.09
2023-02-03T14:59:27.072Z,101918.59
2023-02-03T15:02:12.508Z,101914.78
2023-02-03T15:04:25.096Z,101908.59
2023-02-03T15:06:40.913Z,101872.38
2023-02-03T15:08:46.680Z,101923.13
2023-02-03T15:10:50.016Z,101920.78
2023-02-03T15:12:54.912Z,101897.97
2023-02-03T15:15:19.975Z,101923.22
2023-02-03T15:17:25.827Z,101917.94
2023-02-03T15:19:35.679Z,101941.94
2023-02-03T15:21:43.302Z,101905.22
2023-02-03T15:23:49.354Z,101942.91
2023-02-03T15:25:57.266Z,101941.63
2023-02-03T15:28:12.864Z,101949.84
2023-02-03T15:30:17.796Z,101948.69
2023-02-03T15:32:29.005Z,101959.91
2023-02-03T15:34:39.727Z,101961.00
2023-02-03T15:36:48.319Z,101973.28
2023-02-03T15:39:18.130Z,101981.13
2023-02-03T15:41:24.415Z,102001.38
2023-02-03T15:43:32.771Z,102019.88
2023-02-03T15:45:42.778Z,102013.91
2023-02-03T15:47:51.737Z,102016.38
2023-02-03T15:50:06.152Z,102000.28
2023-02-03T15:52:18.028Z,102006.66
2023-02-03T15:54:30.163Z,102009.88
2023-02-03T15:56:37.906Z,102005.41
2023-02-03T15:58:47.126Z,102019.09
2023-02-03T16:00:53.447Z,102017.72
2023-02-03T16:02:59.704Z,102026.50
2023-02-03T16:05:06.039Z,102022.94
2023-02-03T16:07:19.248Z,102030.97
2023-02-03T16:09:33.397Z,102033.50
2023-02-03T16:11:39.298Z,102028.72
2023-02-03T16:13:45.518Z,102014.06
2023-02-03T16:16:05.758Z,102039.13
2023-02-03T16:18:17.559Z,102038.88
2023-02-03T16:20:29.259Z,102045.94
2023-02-03T16:22:38.731Z,102047.75
2023-02-03T16:24:45.816Z,102053.19
2023-02-03T16:26:49.213Z,102046.53
2023-02-03T16:29:30.465Z,102056.88
2023-02-03T16:31:51.652Z,102069.41
2023-02-03T16:34:12.688Z,102063.25
2023-02-03T16:36:34.003Z,102068.75
2023-02-03T16:38:55.043Z,102053.03
2023-02-03T16:41:17.177Z,102054.94
2023-02-03T16:43:38.101Z,102053.22
2023-02-03T16:45:59.162Z,102053.28
2023-02-03T16:48:21.621Z,102047.66
2023-02-03T16:50:43.709Z,102059.91
2023-02-03T16:52:47.072Z,102062.66
2023-02-03T16:54:50.531Z,102061.75
2023-02-03T16:56:58.440Z,102039.00
2023-02-03T16:59:02.382Z,102068.88
2023-02-03T17:01:07.599Z,102071.09
2023-02-03T17:03:13.980Z,102073.66
2023-02-03T17:05:18.361Z,102078.44
2023-02-03T17:07:21.775Z,102082.59
2023-02-03T17:09:25.161Z,102080.00
2023-02-03T17:11:28.505Z,102071.88
2023-02-03T17:13:33.725Z,102080.75
2023-02-03T17:15:40.639Z,102086.84
2023-02-03T17:17:44.034Z,102090.09
2023-02-03T17:19:47.351Z,102085.97
2023-02-03T17:21:51.482Z,102084.84
2023-02-03T17:23:55.260Z,102100.84
2023-02-03T17:25:58.610Z,102097.19
2023-02-03T17:28:02.206Z,102096.88
2023-02-03T17:30:07.937Z,102111.34
2023-02-03T17:32:15.120Z,102109.72
2023-02-03T17:34:18.857Z,102097.75
2023-02-03T17:36:22.597Z,102101.41
2023-02-03T17:38:25.974Z,102095.56
2023-02-03T17:54:37.399Z,102116.47
2023-02-03T17:56:40.842Z,102120.28
2023-02-03T17:58:44.669Z,102108.81
2023-02-03T18:00:49.679Z,102101.56
2023-02-03T18:02:53.382Z,102131.13
2023-02-03T18:04:56.703Z,102138.78
2023-02-03T18:07:00.079Z,102138.63
2023-02-03T18:09:04.827Z,102130.47
2023-02-03T18:11:08.480Z,102141.25
2023-02-03T18:13:11.958Z,102133.84
2023-02-03T18:15:15.355Z,102140.00
2023-02-03T18:17:20.125Z,102149.19
2023-02-03T18:19:23.420Z,102146.81
2023-02-03T18:21:27.668Z,102143.47
2023-02-03T18:23:31.253Z,102149.03
2023-02-03T18:25:36.134Z,102149.16
2023-02-03T18:27:39.483Z,102161.72
2023-02-03T18:29:44.726Z,102157.34
2023-02-03T18:31:48.973Z,102163.53
2023-02-03T18:33:54.410Z,102166.91
2023-02-03T18:35:58.322Z,102141.22
2023-02-03T18:38:01.806Z,102175.28
2023-02-03T18:40:05.895Z,102179.97
2023-02-03T18:42:09.230Z,102165.28
2023-02-03T18:44:12.595Z,102187.78
2023-02-03T18:46:19.881Z,102190.13
2023-02-03T18:48:23.289Z,102189.03
2023-02-03T18:50:28.690Z,102188.31
2023-02-03T18:52:32.393Z,102196.06
2023-02-03T18:54:36.262Z,102187.47
2023-02-03T18:56:39.829Z,102195.09
2023-02-03T18:58:46.593Z,102198.50
2023-02-03T19:00:50.404Z,102205.50
2023-02-03T19:02:54.185Z,102201.44
2023-02-03T19:04:57.734Z,102193.84
2023-02-03T19:07:02.497Z,102190.47
2023-02-03T19:09:06.448Z,102201.22
2023-02-03T19:11:09.834Z,102197.81
2023-02-03T19:13:13.229Z,102190.84
2023-02-03T19:15:16.636Z,102177.72
2023-02-03T19:17:20.678Z,102202.34
2023-02-03T19:19:24.164Z,102199.47
2023-02-03T19:21:27.691Z,102196.41
2023-02-03T19:23:32.514Z,102198.84
2023-02-03T19:25:36.642Z,102205.56
2023-02-03T19:27:40.025Z,102200.19
2023-02-03T19:29:43.451Z,102209.34
2023-02-03T19:31:46.978Z,102203.88
2023-02-03T19:33:50.513Z,102210.66
2023-02-03T19:35:53.840Z,102201.63
2023-02-03T19:37:57.952Z,102208.84
2023-02-03T19:40:02.682Z,102219.28
2023-02-03T19:42:06.160Z,102215.03
2023-02-03T19:44:09.518Z,102227.25
2023-02-03T19:46:14.786Z,102228.94
2023-02-03T19:48:21.241Z,102226.63
2023-02-03T19:50:24.574Z,102236.25
2023-02-03T19:52:27.938Z,102233.59
2023-02-03T19:54:31.369Z,102219.84
2023-02-03T19:56:36.084Z,102229.59
2023-02-03T19:58:39.633Z,102233.47
2023-02-03T20:00:43.128Z,102238.22
2023-02-03T20:02:46.661Z,102237.56
2023-02-03T20:04:50.370Z,102238.69
2023-02-03T20:06:53.851Z,102243.50
2023-02-03T20:08:57.226Z,102238.84
2023-02-03T20:11:01.049Z,102247.28
2023-02-03T20:13:05.943Z,102254.59
2023-02-03T20:15:09.450Z,102248.38
2023-02-03T20:17:12.930Z,102260.19
2023-02-03T20:19:16.310Z,102257.22
2023-02-03T20:21:19.803Z,102263.31
2023-02-03T20:23:23.488Z,102259.13
2023-02-03T20:25:27.120Z,102275.00
2023-02-03T20:27:30.426Z,102278.03
2023-02-03T20:29:35.131Z,102275.44
2023-02-03T20:31:38.586Z,102270.56
2023-02-03T20:33:42.120Z,102272.72
2023-02-03T20:35:45.621Z,102282.34
2023-02-03T20:37:49.161Z,102282.72
2023-02-03T20:39:52.481Z,102280.94
2023-02-03T20:41:56.061Z,102283.56
2023-02-03T20:43:59.447Z,102290.38
2023-02-03T20:46:06.635Z,102276.28
2023-02-03T20:48:11.810Z,102290.44
2023-02-03T20:50:18.207Z,102288.53
2023-02-03T20:52:22.376Z,102285.59
2023-02-03T20:54:25.857Z,102280.66
2023-02-03T20:56:29.216Z,102284.88
2023-02-03T20:58:37.107Z,102228.53
2023-02-03T21:00:40.630Z,102289.91
2023-02-03T21:03:04.289Z,102283.47
2023-02-03T21:05:24.687Z,102290.72
2023-02-03T21:07:30.763Z,102302.75
2023-02-03T21:09:34.308Z,102301.41
2023-02-03T21:11:37.633Z,102300.28
2023-02-03T21:13:41.381Z,102306.28
2023-02-03T21:15:44.830Z,102322.00
2023-02-03T21:17:49.698Z,102307.97
2023-02-03T21:19:54.782Z,102317.94
2023-02-03T21:21:58.501Z,102322.31
2023-02-03T21:24:02.934Z,102321.16
2023-02-03T21:26:17.507Z,102323.06
2023-02-03T21:28:26.263Z,102303.06
2023-02-03T21:30:33.044Z,102308.94
2023-02-03T21:32:39.289Z,102306.81
2023-02-03T21:34:45.156Z,102306.81
2023-02-03T21:36:48.660Z,102284.00
2023-02-03T21:38:54.774Z,102323.16
2023-02-03T21:40:58.919Z,102317.78
2023-02-03T21:43:03.342Z,102322.88
2023-02-03T21:45:25.289Z,102319.72
2023-02-03T21:47:28.760Z,102317.78
2023-02-03T21:49:34.512Z,102299.88
2023-02-03T21:51:40.140Z,102321.06
2023-02-03T21:53:48.732Z,102334.19
2023-02-03T21:55:52.094Z,102315.97
2023-02-03T21:57:55.666Z,102323.34
2023-02-03T21:59:59.039Z,102321.88
2023-02-03T22:02:03.449Z,102324.41
2023-02-03T22:04:07.702Z,102325.59
2023-02-03T22:06:19.826Z,102326.31
2023-02-03T22:08:24.861Z,102331.38
2023-02-03T22:10:28.673Z,102329.25
2023-02-03T22:12:32.148Z,102338.06
2023-02-03T22:14:35.519Z,102344.00
2023-02-03T22:16:39.035Z,102356.19
2023-02-03T22:18:42.547Z,102354.47
2023-02-03T22:20:45.902Z,102359.00
2023-02-03T22:22:49.457Z,102311.41
2023-02-03T22:24:54.164Z,102356.28
2023-02-03T22:27:00.216Z,102356.00
2023-02-03T22:29:03.630Z,102362.63
2023-02-03T22:31:07.659Z,102364.25
2023-02-03T22:33:11.394Z,102367.06
2023-02-03T22:35:14.726Z,102373.25
2023-02-03T22:37:18.150Z,102377.47
2023-02-03T22:39:21.597Z,102374.31
2023-02-03T22:41:26.274Z,102366.34
2023-02-03T22:43:31.244Z,102338.69
2023-02-03T22:45:34.649Z,102365.63
2023-02-03T22:47:38.153Z,102384.13
2023-02-03T22:49:42.136Z,102381.34
2023-02-03T22:51:45.716Z,102391.28
2023-02-03T22:53:49.333Z,102389.69
2023-02-03T22:55:52.722Z,102395.16
2023-02-03T22:57:57.608Z,102371.00
2023-02-03T23:00:00.984Z,102397.59
2023-02-03T23:02:04.338Z,102400.75
2023-02-03T23:04:07.673Z,102408.06
2023-02-03T23:06:11.480Z,102409.34
2023-02-03T23:08:14.857Z,102414.84
2023-02-03T23:10:20.797Z,102392.81
2023-02-03T23:12:24.114Z,102413.75
2023-02-03T23:14:29.463Z,102410.59
2023-02-03T23:16:32.786Z,102414.81
2023-02-03T23:18:36.080Z,102424.84
2023-02-03T23:20:39.499Z,102430.47
2023-02-03T23:22:42.965Z,102422.25
2023-02-03T23:24:46.395Z,102440.47
2023-02-03T23:26:49.786Z,102420.19
2023-02-03T23:28:53.200Z,102432.41
2023-02-03T23:30:58.015Z,102422.66
2023-02-03T23:33:01.412Z,102426.66
2023-02-03T23:35:22.938Z,102432.31
2023-02-03T23:37:26.530Z,102437.88
2023-02-03T23:39:30.330Z,102408.88
2023-02-03T23:41:33.686Z,102417.03
2023-02-03T23:43:37.154Z,102438.34
2023-02-03T23:45:40.868Z,102433.06
2023-02-03T23:47:47.173Z,102450.47
2023-02-03T23:49:50.626Z,102416.63
2023-02-03T23:51:54.385Z,102448.03
2023-02-03T23:53:57.637Z,102421.44
2023-02-03T23:56:01.866Z,102457.47
2023-02-03T23:58:05.953Z,102453.06
